• Join FlightAware (Why Join?)
  • Login
  • US Flag 
02:43AM EDT


 

Airport Tracker/Info


-or-


 

Live Flight TrackerFlight Track Log ✈ N507PD ✈ 02-May-2013 ✈ KCPS - KLOU

Flight Track Log - Related Links

Times and Time Zones

All times are in EDT time to prevent confusion due to time zone crossing. See the N507PD flight status page for this flight to view local times or setup timezone preferences in your user account.

Time Position Orientation Groundspeed Altitude Reporting Facility
EDT Latitude Longitude Course Direction KTS MPH feet Rate Location/Type
08:34PM 38.5833 -90.1833 111° Southeast 189 217 1,700  Level Gateway (St. Louis) TRACON
08:35PM 38.5347 -90.2214 211° Southwest 246 283 3,300 3,420 Climbing Kansas City Center
08:36PM 38.5211 -90.1447 103° East 246 283 8,700 3,900 Climbing Kansas City Center
08:37PM 38.4958 -90.0522 109° East 264 304 11,300 2,520 Climbing Kansas City Center
08:38PM 38.4422 -89.9842 135° Southeast 287 330 13,900 2,820 Climbing Kansas City Center
08:39PM 38.3728 -89.8936 134° Southeast 297 342 17,200 2,700 Climbing Kansas City Center
08:40PM 38.6943 -90.1569 111° Southeast  Level FlightAware Approximate
08:40PM 38.3147 -89.8225 136° Southeast 294 338 19,500  Level Kansas City Center
08:41PM 38.2550 -89.7536 138° Southeast 291 335 21,800 2,100 Climbing Kansas City Center
08:42PM 38.2008 -89.6739 131° Southeast 295 339 23,900 1,920 Climbing Kansas City Center
08:43PM 38.1850 -89.5614 100° East 303 349 25,800 1,500 Climbing Kansas City Center
08:45PM 38.1767 -89.4497 95° East 317 365 27,000 540 Climbing Kansas City Center
08:46PM 38.1814 -89.3222 87° East 357 411 27,000  Level Kansas City Center
08:47PM 38.1861 -89.1731 88° East 390 449 27,000  Level Kansas City Center
08:48PM 38.1897 -89.0297 88° East 404 465 27,000  Level Kansas City Center
08:49PM 38.1947 -88.8850 87° East 408 470 27,000  Level Kansas City Center
08:50PM 38.1953 -88.7414 90° East 411 473 27,000  Level Kansas City Center
08:51PM 38.1983 -88.5933 88° East 408 470 27,000  Level Kansas City Center
08:52PM 38.2022 -88.4475 88° East 412 474 27,000  Level Kansas City Center
08:53PM 38.2047 -88.3008 89° East 414 476 27,000  Level Kansas City Center
08:54PM 38.2083 -88.1547 88° East 413 475 27,000  Level Kansas City Center
08:55PM 38.2117 -88.0081 88° East 414 476 27,000 -300 Level Kansas City Center
08:56PM 38.2150 -87.8903 88° East 417 480 26,500 -1,140 Descending Indianapolis Center
08:57PM 38.2183 -87.7403 88° East 422 486 25,000 -1,860 Descending Indianapolis Center
08:58PM 38.2203 -87.5622 89° East 420 483 22,800 -2,040 Descending Indianapolis Center
08:59PM 38.2219 -87.4256 89° East 393 452 20,900 -1,860 Descending Indianapolis Center
09:00PM 38.2236 -87.2933 89° East 377 434 19,100 -1,620 Descending Indianapolis Center
09:01PM 38.2253 -87.1661 89° East 365 420 17,600 -1,560 Descending Indianapolis Center
09:02PM 38.2258 -87.0453 90° East 354 407 16,000 -1,560 Descending Indianapolis Center
09:03PM 38.2275 -86.9267 89° East 344 396 14,500 -1,680 Descending Indianapolis Center
09:04PM 38.2292 -86.7861 89° East 335 386 12,600 -1,740 Descending Indianapolis Center
09:05PM 38.2294 -86.6683 90° East 332 382 11,000 -840 Descending Indianapolis Center
09:06PM 38.2292 -86.5589 90° East 315 362 10,900 -300 Descending Indianapolis Center
09:07PM 38.2233 -86.4458 94° East 318 366 10,500 -780 Descending Indianapolis Center
09:08PM 38.2058 -86.3350 101° East 321 369 9,400 -1,140 Descending Indianapolis Center
09:09PM 38.1933 -86.2367 99° East 287 330 8,200 -1,200 Descending Indianapolis Center
09:10PM 38.1808 -86.1414 99° East 277 319 7,000 -1,140 Descending Indianapolis Center
09:11PM 38.1681 -86.0478 100° East 271 312 6,000 -780 Descending Indianapolis Center
09:12PM 38.1594 -85.9544 97° East 267 307 5,500 -720 Descending Indianapolis Center
09:13PM 38.1756 -85.8567 78° East 273 314 4,600 -840 Descending Indianapolis Center
09:14PM 38.1875 -85.7647 81° East 271 312 3,900 -840 Descending Indianapolis Center
09:15PM 38.1989 -85.6808 80° East 257 296 3,000 -540 Descending Indianapolis Center
09:16PM 38.2094 -85.5894 82° East 247 284 2,900 -720 Descending Indianapolis Center
09:18PM 38.2333 -85.6333 305° West 117 135 1,000 -1,020 Descending Louisville TRACON
09:20PM 38.2167 -85.6500 332° Northwest  Level FlightAware Approximate